Overview Statistics Trail Chart Weather Telemetry Raw packets
 

This is the latest recevied telemetry packets stored in our database for station/object IZ5FSA-12. If no packets are shown the sender has not sent any telemetry packets the latest 10 day(s).

Telemetry packets is used to share measurements like repeteater parameters, battery voltage, radiation readings (or any other measurements).

<< 1 2 3 4 >>
Time Press* Temp.in* Hum* QNH* Temp.out*
1788608237 1011.9 hPa 28.2 C deg 44.5 % 1024.5 hPa 0 C deg
1788606646 1011.9 hPa 28 C deg 44.3 % 1024.5 hPa 0 C deg
1788604532 1012.2 hPa 28 C deg 44.3 % 1024.8 hPa 0 C deg
1788603056 1012.4 hPa 27.9 C deg 44.5 % 1025 hPa 0 C deg
1788599548 1012.5 hPa 27.5 C deg 44.7 % 1025 hPa 0 C deg
1788599412 1012.5 hPa 27.5 C deg 44.7 % 1025 hPa 0 C deg
1788597284 1012.3 hPa 27.2 C deg 44.8 % 1024.9 hPa 0 C deg
1788597229 1012.3 hPa 27.2 C deg 44.8 % 1024.9 hPa 0 C deg
1788595415 1012.5 hPa 26.9 C deg 44.5 % 1025.1 hPa 0 C deg
1788593606 1012.2 hPa 26.7 C deg 45.6 % 1024.8 hPa 0 C deg
1788593519 1012.2 hPa 26.7 C deg 45.6 % 1024.8 hPa 0 C deg
1788591744 1012 hPa 26.4 C deg 45.7 % 1024.6 hPa 0 C deg
1788589971 1012 hPa 26.8 C deg 44.1 % 1024.6 hPa 0 C deg
1788588072 1012.1 hPa 26.9 C deg 43.7 % 1024.7 hPa 0 C deg
1788586254 1012 hPa 26.5 C deg 44.2 % 1024.6 hPa 0 C deg
1788584376 1011.7 hPa 26.5 C deg 46.9 % 1024.3 hPa 0 C deg
1788582671 1011.8 hPa 26.5 C deg 47.9 % 1024.5 hPa 0 C deg
1788582657 1011.8 hPa 26.5 C deg 47.9 % 1024.5 hPa 0 C deg
1788578889 1011.8 hPa 27 C deg 46.6 % 1024.4 hPa 0 C deg
1788577196 1011.8 hPa 27.1 C deg 46.1 % 1024.4 hPa 0 C deg
1788575382 1011.7 hPa 27.5 C deg 44.8 % 1024.3 hPa 0 C deg
1788573486 1011.7 hPa 27.9 C deg 44.1 % 1024.2 hPa 0 C deg
1788572248 1011.6 hPa 28 C deg 42.9 % 1024.2 hPa 0 C deg
1788571976 1011.6 hPa 28 C deg 42.9 % 1024.2 hPa 0 C deg
1788570957 1011.6 hPa 28.2 C deg 42.2 % 1024.1 hPa 0 C deg
*Used Equation Coefficients:
Press: 0, 1, 0
Temp.in: 0, 1, 0
Hum: 0, 1, 0
QNH: 0, 1, 0
Temp.out: 0, 1, 0

  • The parameter names for the analog channels will be Value1, Value2, Value3 (up to Value5) if station has not sent a PARAM-packet that specifies the parameter names for each analog channel.
  • Each analog value is a decimal number between 000 and 255 (according to APRS specifications). The receiver use the telemetry equation coefficientsto to restore the original sensor values. If no EQNS-packet with equation coefficients is sent we will show the values as is (this corresponds to the equation coefficients a=0, b=1 and c=0).
    The sent equation coefficients is used in the equation: a * value2 + b * value + c.
  • The units for the analog values will not be shown if station has not sent a UNIT-packet specifying what unit's to use.
  • The parameter names for the digital bits will be Bit1, Bit2, Bit3 (up to Bit8) if station has not sent a PARAM-packet that specifies the parameter names for each digital bit.
  • All bit labels will be named "On" if station has not sent a UNIT-packet that specifies the label of each bit.
  • A bit is considered to be On when the bit is 1 if station has not sent a BITS-packet that specifies another "Bit sense" (a BITS-packet specify the state of the bits that match the BIT labels)